Time;durP1;ratioP1;P1;durP2;ratioP2;P2;SDS_P1;SDS_P2;PMS_P1;PMS_P2;Temp;Humidity;BMP_temperature;BMP_pressure;BME280_temperature;BME280_humidity;BME280_pressure;Samples;Min_cycle;Max_cycle;Signal;HPM_P1;HPM_P2
2024/01/31 00:01:34;;;;;;;3.13;2.17;;;;;;;;;;4986948;28;20555;-76
2024/01/31 00:04:02;;;;;;;3.78;2.60;;;;;;;;;;4998112;28;20046;-75
2024/01/31 00:06:30;;;;;;;3.38;2.97;;;;;;;;;;5002713;28;20044;-75
2024/01/31 00:09:00;;;;;;;2.92;2.38;;;;;;;;;;5002560;28;20128;-75
2024/01/31 00:11:31;;;;;;;1.45;1.35;;;;;;;;;;4988691;28;20395;-77
2024/01/31 00:13:59;;;;;;;1.97;1.87;;;;;;;;;;4991688;28;20058;-76
2024/01/31 00:16:26;;;;;;;1.55;1.45;;;;;;;;;;4994667;28;20048;-78
2024/01/31 00:18:54;;;;;;;4.80;3.13;;;;;;;;;;5002548;28;20058;-75
2024/01/31 00:21:22;;;;;;;5.90;4.60;;;;;;;;;;4996482;28;20041;-76
2024/01/31 00:23:52;;;;;;;3.08;2.80;;;;;;;;;;4987258;28;20496;-76
2024/01/31 00:26:20;;;;;;;7.05;3.53;;;;;;;;;;4988266;28;20050;-76
2024/01/31 00:28:47;;;;;;;0.98;0.98;;;;;;;;;;5002073;28;20407;-75
2024/01/31 00:31:15;;;;;;;1.40;1.38;;;;;;;;;;5003089;28;20178;-77
2024/01/31 00:33:42;;;;;;;5.90;3.45;;;;;;;;;;4995796;28;20057;-75
2024/01/31 00:36:11;;;;;;;1.90;1.60;;;;;;;;;;4996008;28;20489;-76
2024/01/31 00:38:39;;;;;;;1.33;1.13;;;;;;;;;;5000041;28;20097;-76
2024/01/31 00:41:07;;;;;;;2.17;2.00;;;;;;;;;;5000483;28;20042;-76
2024/01/31 00:43:35;;;;;;;1.65;1.58;;;;;;;;;;4995530;28;20054;-76
2024/01/31 00:46:06;;;;;;;0.22;0.22;;;;;;;;;;4992853;28;20487;-75
2024/01/31 00:48:34;;;;;;;0.10;0.10;;;;;;;;;;4994751;28;20052;-75
2024/01/31 00:51:01;;;;;;;2.13;1.98;;;;;;;;;;4995725;28;20172;-76
2024/01/31 00:53:30;;;;;;;4.85;2.10;;;;;;;;;;4999460;28;20538;-75
2024/01/31 00:55:57;;;;;;;6.13;5.15;;;;;;;;;;4997220;28;20128;-76
2024/01/31 00:58:25;;;;;;;0.55;0.55;;;;;;;;;;5003401;28;20415;-77
2024/01/31 01:00:52;;;;;;;2.15;1.60;;;;;;;;;;5000103;28;20037;-75
2024/01/31 01:03:20;;;;;;;0.57;0.57;;;;;;;;;;4987866;28;20145;-77
2024/01/31 01:05:48;;;;;;;2.42;1.73;;;;;;;;;;5000221;28;20089;-76
2024/01/31 01:08:15;;;;;;;0.47;0.47;;;;;;;;;;5001860;28;20124;-75
2024/01/31 01:10:43;;;;;;;0.82;0.82;;;;;;;;;;4998665;28;20049;-76
2024/01/31 01:13:10;;;;;;;1.23;1.15;;;;;;;;;;4998640;28;20080;-77
2024/01/31 01:15:38;;;;;;;7.68;5.30;;;;;;;;;;4995657;28;20041;-77
2024/01/31 01:18:05;;;;;;;0.73;0.73;;;;;;;;;;5006725;28;20053;-76
2024/01/31 01:20:33;;;;;;;0.52;0.52;;;;;;;;;;4995117;28;20074;-77
2024/01/31 01:23:00;;;;;;;0.63;0.57;;;;;;;;;;4996208;28;20046;-77
2024/01/31 01:25:28;;;;;;;0.70;0.70;;;;;;;;;;5003149;28;20054;-76
2024/01/31 01:27:56;;;;;;;1.38;1.05;;;;;;;;;;5002611;28;20042;-75
2024/01/31 01:30:24;;;;;;;0.68;0.68;;;;;;;;;;4999395;28;20057;-76
2024/01/31 01:32:51;;;;;;;1.73;1.63;;;;;;;;;;5005048;28;20058;-75
2024/01/31 01:35:19;;;;;;;0.73;0.73;;;;;;;;;;4998489;28;20049;-75
2024/01/31 01:37:48;;;;;;;3.50;2.63;;;;;;;;;;5001742;28;20070;-75
2024/01/31 01:40:16;;;;;;;0.20;0.20;;;;;;;;;;4997627;28;20407;-75
2024/01/31 01:42:45;;;;;;;0.30;0.30;;;;;;;;;;4998817;28;20053;-76
2024/01/31 01:45:12;;;;;;;10.65;9.80;;;;;;;;;;4997165;28;20042;-77
2024/01/31 01:47:42;;;;;;;0.95;0.63;;;;;;;;;;4995586;28;20046;-75
2024/01/31 01:50:10;;;;;;;2.15;1.58;;;;;;;;;;4994844;28;20507;-75
2024/01/31 01:52:38;;;;;;;0.30;0.30;;;;;;;;;;4997026;28;20058;-75
2024/01/31 01:55:06;;;;;;;1.35;1.25;;;;;;;;;;4992259;28;20045;-76
2024/01/31 01:57:38;;;;;;;0.22;0.22;;;;;;;;;;4998805;28;20046;-76
2024/01/31 02:00:10;;;;;;;2.95;2.78;;;;;;;;;;4996269;28;20056;-77
2024/01/31 02:02:38;;;;;;;1.75;1.65;;;;;;;;;;4995409;28;20036;-77
2024/01/31 02:05:07;;;;;;;3.78;3.30;;;;;;;;;;4994388;28;20042;-78
2024/01/31 02:07:36;;;;;;;5.68;1.70;;;;;;;;;;4997061;28;20129;-78
2024/01/31 02:10:04;;;;;;;2.65;2.20;;;;;;;;;;4993199;28;20445;-77
2024/01/31 02:12:32;;;;;;;0.40;0.40;;;;;;;;;;4998970;28;20097;-78
2024/01/31 02:14:59;;;;;;;7.47;1.38;;;;;;;;;;4991590;28;20053;-78
2024/01/31 02:17:27;;;;;;;1.42;1.20;;;;;;;;;;4999374;28;20058;-78
2024/01/31 02:19:54;;;;;;;0.73;0.73;;;;;;;;;;4999791;28;20136;-78
2024/01/31 02:22:22;;;;;;;6.30;5.35;;;;;;;;;;5003940;28;20125;-78
2024/01/31 02:24:50;;;;;;;3.22;2.95;;;;;;;;;;4999620;28;20054;-78
2024/01/31 02:27:17;;;;;;;3.20;2.85;;;;;;;;;;5003409;28;20400;-78
2024/01/31 02:29:45;;;;;;;2.30;1.77;;;;;;;;;;5000022;28;20061;-78
2024/01/31 02:32:12;;;;;;;3.33;2.92;;;;;;;;;;5000642;28;26219;-78
2024/01/31 02:34:39;;;;;;;2.85;2.65;;;;;;;;;;4997384;28;20101;-78
2024/01/31 02:37:07;;;;;;;7.85;4.68;;;;;;;;;;5000814;28;20839;-78
2024/01/31 02:39:35;;;;;;;8.50;6.15;;;;;;;;;;5001895;28;20077;-78
2024/01/31 02:42:03;;;;;;;1.70;1.60;;;;;;;;;;5002860;28;20058;-78
2024/01/31 02:44:30;;;;;;;4.00;3.70;;;;;;;;;;5000838;28;20046;-78
2024/01/31 02:46:57;;;;;;;4.95;3.63;;;;;;;;;;4993347;28;20038;-78
2024/01/31 02:49:25;;;;;;;1.67;1.58;;;;;;;;;;4998872;28;20046;-77
2024/01/31 02:51:53;;;;;;;1.55;1.35;;;;;;;;;;5001592;28;20058;-78
2024/01/31 02:54:21;;;;;;;3.65;2.40;;;;;;;;;;4999160;28;20093;-77
2024/01/31 02:56:48;;;;;;;0.47;0.43;;;;;;;;;;5000358;28;20041;-78
2024/01/31 02:59:16;;;;;;;1.02;1.02;;;;;;;;;;5003241;28;20463;-77
2024/01/31 03:01:46;;;;;;;0.10;0.10;;;;;;;;;;5001709;28;20045;-76
2024/01/31 03:04:14;;;;;;;0.82;0.82;;;;;;;;;;5003941;28;20030;-75
2024/01/31 03:06:42;;;;;;;3.45;1.85;;;;;;;;;;5000174;28;20050;-74
2024/01/31 03:09:09;;;;;;;2.72;1.00;;;;;;;;;;4998225;28;20511;-75
2024/01/31 03:11:37;;;;;;;3.55;2.40;;;;;;;;;;5000387;28;20049;-75
2024/01/31 03:14:04;;;;;;;0.93;0.93;;;;;;;;;;5002083;28;20057;-75
2024/01/31 03:16:32;;;;;;;3.55;3.25;;;;;;;;;;4997288;28;20057;-75
2024/01/31 03:18:59;;;;;;;5.25;4.40;;;;;;;;;;4996846;28;20920;-76
2024/01/31 03:21:27;;;;;;;0.17;0.17;;;;;;;;;;5001319;28;20046;-75
2024/01/31 03:23:54;;;;;;;0.50;0.50;;;;;;;;;;4997832;28;20077;-75
2024/01/31 03:26:22;;;;;;;0.30;0.30;;;;;;;;;;4997831;28;20052;-75
2024/01/31 03:28:49;;;;;;;0.65;0.65;;;;;;;;;;5001091;28;20459;-74
2024/01/31 03:31:17;;;;;;;1.58;1.48;;;;;;;;;;4998184;28;20092;-75
2024/01/31 03:33:45;;;;;;;0.30;0.30;;;;;;;;;;4991378;28;20063;-75
2024/01/31 03:36:12;;;;;;;7.43;4.10;;;;;;;;;;4995190;28;20064;-76
2024/01/31 03:38:40;;;;;;;1.40;1.27;;;;;;;;;;5000631;28;20548;-74
2024/01/31 03:41:08;;;;;;;0.10;0.10;;;;;;;;;;4998858;28;20045;-75
2024/01/31 03:43:35;;;;;;;2.95;2.75;;;;;;;;;;5003866;28;20933;-76
2024/01/31 03:46:07;;;;;;;0.10;0.10;;;;;;;;;;5004902;28;20041;-75
2024/01/31 03:48:35;;;;;;;0.32;0.32;;;;;;;;;;4994919;28;20132;-75
2024/01/31 03:51:02;;;;;;;0.90;0.35;;;;;;;;;;4990617;28;20057;-76
2024/01/31 03:53:30;;;;;;;2.55;2.35;;;;;;;;;;4998232;28;20145;-74
2024/01/31 03:55:57;;;;;;;11.43;7.82;;;;;;;;;;5004005;28;20053;-74
2024/01/31 03:58:25;;;;;;;3.92;3.38;;;;;;;;;;5001875;28;20089;-76
2024/01/31 04:00:52;;;;;;;4.55;4.13;;;;;;;;;;4999956;28;20042;-74
2024/01/31 04:03:20;;;;;;;2.58;2.45;;;;;;;;;;4997693;28;20073;-75
2024/01/31 04:05:49;;;;;;;0.65;0.65;;;;;;;;;;4996473;28;20038;-74
2024/01/31 04:08:17;;;;;;;3.78;2.42;;;;;;;;;;4999653;28;20038;-74
2024/01/31 04:10:44;;;;;;;0.20;0.20;;;;;;;;;;4999270;28;20054;-74
2024/01/31 04:13:12;;;;;;;1.67;1.58;;;;;;;;;;5002315;28;20104;-76
2024/01/31 04:15:39;;;;;;;7.35;4.97;;;;;;;;;;4998941;28;20046;-74
2024/01/31 04:18:07;;;;;;;1.38;1.38;;;;;;;;;;4995549;28;26215;-74
2024/01/31 04:20:35;;;;;;;0.47;0.38;;;;;;;;;;4998618;28;20049;-75
2024/01/31 04:23:03;;;;;;;2.92;2.00;;;;;;;;;;5001660;28;20092;-74
2024/01/31 04:25:31;;;;;;;0.82;0.65;;;;;;;;;;4993840;28;20861;-75
2024/01/31 04:27:58;;;;;;;0.55;0.55;;;;;;;;;;4998315;28;20042;-74
2024/01/31 04:30:26;;;;;;;2.83;2.28;;;;;;;;;;5007742;28;20419;-81
2024/01/31 04:33:00;;;;;;;3.20;2.90;;;;;;;;;;5011783;28;20046;-80
2024/01/31 04:35:28;;;;;;;11.70;3.25;;;;;;;;;;5004046;28;20439;-80
2024/01/31 04:37:56;;;;;;;1.10;1.10;;;;;;;;;;5001575;28;20531;-80
2024/01/31 04:40:23;;;;;;;2.88;2.65;;;;;;;;;;5011933;28;20050;-80
2024/01/31 04:42:50;;;;;;;0.73;0.73;;;;;;;;;;5012870;28;20073;-80
2024/01/31 04:45:21;;;;;;;3.17;2.35;;;;;;;;;;5007031;28;20056;-80
2024/01/31 04:47:48;;;;;;;1.05;0.93;;;;;;;;;;5011314;28;20053;-80
2024/01/31 04:50:16;;;;;;;8.50;2.97;;;;;;;;;;5002441;28;20053;-81
2024/01/31 04:52:44;;;;;;;0.60;0.60;;;;;;;;;;5007174;28;20494;-81
2024/01/31 04:55:11;;;;;;;3.85;3.35;;;;;;;;;;5005408;28;20436;-80
2024/01/31 04:57:40;;;;;;;0.30;0.30;;;;;;;;;;5004665;28;20054;-80
2024/01/31 05:00:13;;;;;;;0.40;0.40;;;;;;;;;;5007592;28;20061;-80
2024/01/31 05:02:40;;;;;;;1.45;0.85;;;;;;;;;;4998613;28;20054;-80
2024/01/31 05:05:08;;;;;;;41.00;12.10;;;;;;;;;;5013513;28;20073;-80
2024/01/31 05:07:35;;;;;;;8.65;5.72;;;;;;;;;;5010633;28;20077;-81
2024/01/31 05:10:03;;;;;;;2.30;1.98;;;;;;;;;;5015246;28;20072;-80
2024/01/31 05:12:31;;;;;;;0.95;0.95;;;;;;;;;;5015499;28;20038;-80
2024/01/31 05:14:58;;;;;;;1.00;0.95;;;;;;;;;;5014190;28;20045;-80
2024/01/31 05:17:26;;;;;;;4.13;3.22;;;;;;;;;;5010958;28;20053;-80
2024/01/31 05:19:53;;;;;;;0.70;0.70;;;;;;;;;;5006136;28;20530;-80
2024/01/31 05:22:21;;;;;;;2.03;1.92;;;;;;;;;;5000992;28;20129;-80
2024/01/31 05:24:48;;;;;;;15.63;3.28;;;;;;;;;;5006901;28;20496;-80
2024/01/31 05:27:16;;;;;;;0.77;0.77;;;;;;;;;;5015146;28;20246;-80
2024/01/31 05:29:43;;;;;;;0.40;0.40;;;;;;;;;;5015700;28;20046;-80
2024/01/31 05:32:11;;;;;;;3.67;1.42;;;;;;;;;;5017055;28;20050;-80
2024/01/31 05:34:40;;;;;;;3.00;2.08;;;;;;;;;;5016520;28;20057;-80
2024/01/31 05:37:08;;;;;;;6.82;3.90;;;;;;;;;;5011171;28;20113;-80
2024/01/31 05:39:35;;;;;;;0.40;0.40;;;;;;;;;;5012242;28;20053;-80
2024/01/31 05:42:02;;;;;;;11.25;6.95;;;;;;;;;;5012230;28;20104;-80
2024/01/31 05:44:30;;;;;;;3.30;3.05;;;;;;;;;;5009022;28;20045;-80
2024/01/31 05:46:57;;;;;;;3.80;2.10;;;;;;;;;;5008109;28;20080;-80
2024/01/31 05:49:25;;;;;;;1.55;1.52;;;;;;;;;;5006208;28;20046;-80
2024/01/31 05:51:53;;;;;;;7.28;4.47;;;;;;;;;;5008645;28;20061;-79
2024/01/31 05:54:20;;;;;;;2.10;1.92;;;;;;;;;;4993684;28;20050;-79
2024/01/31 05:56:51;;;;;;;4.05;3.78;;;;;;;;;;5004392;28;20512;-80
2024/01/31 05:59:25;;;;;;;2.13;1.92;;;;;;;;;;5005562;28;20307;-79
2024/01/31 06:01:52;;;;;;;4.68;3.55;;;;;;;;;;5000407;28;20042;-79
2024/01/31 06:04:20;;;;;;;1.33;1.23;;;;;;;;;;4993061;28;20042;-80
2024/01/31 06:06:47;;;;;;;1.45;1.35;;;;;;;;;;4999153;28;20227;-79
2024/01/31 06:09:15;;;;;;;5.63;2.05;;;;;;;;;;4999830;28;20547;-79
2024/01/31 06:11:43;;;;;;;2.67;2.13;;;;;;;;;;5003818;28;20050;-80
2024/01/31 06:14:10;;;;;;;2.55;2.35;;;;;;;;;;5016233;28;20071;-80
2024/01/31 06:16:37;;;;;;;4.15;3.75;;;;;;;;;;5004369;28;20140;-79
2024/01/31 06:19:05;;;;;;;2.03;1.90;;;;;;;;;;4989904;28;20042;-80
2024/01/31 06:21:32;;;;;;;4.78;2.67;;;;;;;;;;4996623;28;20070;-80
2024/01/31 06:24:00;;;;;;;3.30;2.63;;;;;;;;;;4994166;28;20073;-79
2024/01/31 06:26:28;;;;;;;3.22;3.05;;;;;;;;;;5002448;28;20053;-79
2024/01/31 06:28:56;;;;;;;2.90;2.38;;;;;;;;;;5004602;28;20042;-80
2024/01/31 06:31:28;;;;;;;2.47;2.28;;;;;;;;;;5006610;28;20579;-80
2024/01/31 06:33:56;;;;;;;1.02;1.02;;;;;;;;;;5013409;28;20326;-80
2024/01/31 06:36:23;;;;;;;0.68;0.60;;;;;;;;;;5002215;28;20564;-78
2024/01/31 06:38:51;;;;;;;1.83;1.73;;;;;;;;;;5004045;28;20064;-80
2024/01/31 06:41:18;;;;;;;1.08;1.08;;;;;;;;;;5012698;28;20054;-80
2024/01/31 06:43:46;;;;;;;2.80;2.60;;;;;;;;;;5006585;28;20046;-80
2024/01/31 06:46:15;;;;;;;3.58;2.83;;;;;;;;;;5019192;28;20315;-79
2024/01/31 06:48:42;;;;;;;3.97;3.38;;;;;;;;;;5009217;28;20054;-79
2024/01/31 06:51:11;;;;;;;3.05;2.47;;;;;;;;;;4976805;28;20057;-80
2024/01/31 06:53:38;;;;;;;1.38;1.35;;;;;;;;;;5000029;28;20104;-80
2024/01/31 06:56:06;;;;;;;3.80;3.33;;;;;;;;;;5005344;28;20045;-78
2024/01/31 06:58:34;;;;;;;1.02;1.02;;;;;;;;;;4998593;28;20046;-77
2024/01/31 07:01:04;;;;;;;4.90;3.58;;;;;;;;;;4999860;28;20129;-77
2024/01/31 07:03:32;;;;;;;0.52;0.52;;;;;;;;;;4989152;22;20062;-80
2024/01/31 07:06:00;;;;;;;2.38;2.05;;;;;;;;;;4970182;28;20459;-81
2024/01/31 07:08:27;;;;;;;1.58;1.48;;;;;;;;;;4983630;28;20062;-81
2024/01/31 07:10:55;;;;;;;2.30;2.20;;;;;;;;;;4987369;28;20502;-81
2024/01/31 07:13:22;;;;;;;1.42;1.33;;;;;;;;;;4985414;28;20042;-80
2024/01/31 07:15:50;;;;;;;4.95;3.85;;;;;;;;;;4985569;28;20042;-80
2024/01/31 07:18:18;;;;;;;1.83;1.67;;;;;;;;;;4982597;28;20046;-81
2024/01/31 07:20:46;;;;;;;2.28;1.88;;;;;;;;;;4983611;28;20050;-81
2024/01/31 07:23:14;;;;;;;3.78;3.47;;;;;;;;;;4976990;28;20038;-81
2024/01/31 07:25:41;;;;;;;3.15;2.03;;;;;;;;;;4984354;28;20109;-81
2024/01/31 07:28:09;;;;;;;3.42;3.03;;;;;;;;;;4984680;28;20046;-81
2024/01/31 07:30:36;;;;;;;1.83;1.73;;;;;;;;;;4985323;28;20258;-81
2024/01/31 07:33:04;;;;;;;2.97;2.75;;;;;;;;;;4985753;28;20061;-81
2024/01/31 07:35:31;;;;;;;0.20;0.20;;;;;;;;;;4984549;28;20505;-81
2024/01/31 07:37:58;;;;;;;6.95;4.60;;;;;;;;;;4979590;28;20049;-81
2024/01/31 07:40:26;;;;;;;5.57;4.35;;;;;;;;;;4977487;28;20046;-81
2024/01/31 07:42:53;;;;;;;11.35;7.93;;;;;;;;;;4983640;28;20076;-81
2024/01/31 07:45:21;;;;;;;1.55;1.23;;;;;;;;;;4958832;28;20409;-79
2024/01/31 07:47:48;;;;;;;2.60;2.35;;;;;;;;;;4985049;28;20393;-79
2024/01/31 07:50:16;;;;;;;4.70;1.65;;;;;;;;;;4983740;28;20419;-79
2024/01/31 07:52:43;;;;;;;2.75;2.08;;;;;;;;;;4984875;28;20395;-79
2024/01/31 07:55:11;;;;;;;3.78;2.30;;;;;;;;;;4980862;28;20303;-79
2024/01/31 07:57:39;;;;;;;0.77;0.77;;;;;;;;;;4984087;28;20144;-80
2024/01/31 08:00:07;;;;;;;2.80;2.58;;;;;;;;;;4981492;28;20050;-79
2024/01/31 08:02:35;;;;;;;20.77;3.88;;;;;;;;;;4975235;28;20066;-79
2024/01/31 08:05:04;;;;;;;1.20;1.20;;;;;;;;;;4980129;28;20508;-79
2024/01/31 08:07:32;;;;;;;0.95;0.95;;;;;;;;;;4968920;28;20043;-80
2024/01/31 08:09:59;;;;;;;1.55;1.45;;;;;;;;;;4979982;28;20042;-79
2024/01/31 08:12:27;;;;;;;4.30;0.82;;;;;;;;;;4979323;28;20047;-79
2024/01/31 08:14:55;;;;;;;0.88;0.88;;;;;;;;;;4980194;28;20500;-80
2024/01/31 08:17:22;;;;;;;0.68;0.63;;;;;;;;;;4984333;28;20051;-80
2024/01/31 08:19:50;;;;;;;1.58;1.48;;;;;;;;;;4981707;28;20046;-79
2024/01/31 08:22:17;;;;;;;0.50;0.50;;;;;;;;;;4985079;28;20043;-79
2024/01/31 08:24:45;;;;;;;5.13;2.65;;;;;;;;;;4985889;28;20101;-80
2024/01/31 08:27:13;;;;;;;2.60;1.55;;;;;;;;;;4978707;28;20046;-81
2024/01/31 08:29:43;;;;;;;1.08;0.73;;;;;;;;;;4980356;28;20043;-80
2024/01/31 08:32:12;;;;;;;1.70;1.55;;;;;;;;;;4962467;28;20050;-81
2024/01/31 08:34:39;;;;;;;1.83;1.73;;;;;;;;;;4983037;28;20078;-80
2024/01/31 08:37:07;;;;;;;0.68;0.68;;;;;;;;;;4979985;28;20050;-80
2024/01/31 08:39:34;;;;;;;2.50;1.65;;;;;;;;;;4981969;28;20039;-82
2024/01/31 08:42:02;;;;;;;1.05;1.05;;;;;;;;;;4982947;28;20073;-80
2024/01/31 08:44:30;;;;;;;4.05;3.65;;;;;;;;;;4977285;28;20078;-80
2024/01/31 08:46:58;;;;;;;1.02;0.98;;;;;;;;;;4979976;28;20043;-80
2024/01/31 08:49:44;;;;;;;3.03;2.53;;;;;;;;;;4970210;28;20053;-80
2024/01/31 08:52:13;;;;;;;1.30;0.95;;;;;;;;;;4964198;28;20046;-80
2024/01/31 08:54:40;;;;;;;1.08;1.08;;;;;;;;;;4981963;28;20046;-80
2024/01/31 08:57:08;;;;;;;2.20;2.10;;;;;;;;;;4973553;28;20105;-80
2024/01/31 08:59:35;;;;;;;3.95;3.67;;;;;;;;;;4977410;28;20172;-80
2024/01/31 09:02:03;;;;;;;2.22;2.03;;;;;;;;;;4966860;28;20463;-80
2024/01/31 09:04:30;;;;;;;1.27;1.17;;;;;;;;;;4975864;28;20359;-80
2024/01/31 09:06:58;;;;;;;3.85;3.17;;;;;;;;;;4983678;28;20038;-81
2024/01/31 09:09:26;;;;;;;2.38;0.93;;;;;;;;;;4959241;28;20057;-80
2024/01/31 09:12:06;;;;;;;2.10;1.90;;;;;;;;;;4980256;28;20077;-81
2024/01/31 09:14:53;;;;;;;4.07;3.63;;;;;;;;;;4978385;28;20058;-81
2024/01/31 09:17:21;;;;;;;4.93;3.17;;;;;;;;;;4979277;28;20051;-80
2024/01/31 09:19:49;;;;;;;11.00;6.90;;;;;;;;;;4980958;28;20078;-80
2024/01/31 09:22:17;;;;;;;9.43;4.22;;;;;;;;;;4976169;28;20503;-80
2024/01/31 09:24:45;;;;;;;4.40;3.85;;;;;;;;;;4983924;28;20559;-80
2024/01/31 09:27:19;;;;;;;14.57;8.88;;;;;;;;;;5002127;28;20505;-80
2024/01/31 09:29:47;;;;;;;5.25;3.63;;;;;;;;;;4991382;28;20042;-79
2024/01/31 09:32:15;;;;;;;5.72;4.38;;;;;;;;;;4984175;28;20386;-79
2024/01/31 09:34:47;;;;;;;4.60;3.17;;;;;;;;;;4977982;28;20043;-79
2024/01/31 09:37:14;;;;;;;5.90;5.40;;;;;;;;;;4988971;28;21009;-78
2024/01/31 09:39:42;;;;;;;1.45;1.35;;;;;;;;;;4985646;28;20059;-79
2024/01/31 09:42:09;;;;;;;3.78;3.42;;;;;;;;;;4987216;28;20081;-80
2024/01/31 09:44:37;;;;;;;7.00;4.70;;;;;;;;;;4989768;28;20547;-79
2024/01/31 09:47:05;;;;;;;6.65;6.03;;;;;;;;;;4986487;28;20651;-79
2024/01/31 09:49:33;;;;;;;1.45;1.35;;;;;;;;;;4978742;28;20054;-79
2024/01/31 09:52:00;;;;;;;6.50;3.10;;;;;;;;;;4986249;28;20074;-79
2024/01/31 09:54:32;;;;;;;5.18;4.20;;;;;;;;;;4984392;28;20145;-79
2024/01/31 09:57:01;;;;;;;5.93;5.05;;;;;;;;;;4982681;28;20050;-79
2024/01/31 09:59:29;;;;;;;2.15;1.63;;;;;;;;;;4983569;28;20108;-79
2024/01/31 10:01:59;;;;;;;3.63;3.25;;;;;;;;;;4977703;28;20046;-79
2024/01/31 10:04:27;;;;;;;2.88;2.63;;;;;;;;;;4977511;28;20058;-80
2024/01/31 10:06:55;;;;;;;0.95;0.95;;;;;;;;;;4978946;28;20462;-80
2024/01/31 10:09:22;;;;;;;3.60;2.17;;;;;;;;;;4972042;28;20050;-80
2024/01/31 10:11:49;;;;;;;18.45;11.35;;;;;;;;;;4986351;28;20054;-78
2024/01/31 10:14:17;;;;;;;6.97;6.20;;;;;;;;;;4986041;28;20509;-79
2024/01/31 10:16:44;;;;;;;3.63;3.38;;;;;;;;;;4974268;28;20050;-79
2024/01/31 10:19:12;;;;;;;0.45;0.45;;;;;;;;;;4985813;28;20092;-80
2024/01/31 10:21:40;;;;;;;8.20;5.75;;;;;;;;;;4988026;28;20133;-79
2024/01/31 10:24:08;;;;;;;7.38;3.90;;;;;;;;;;4988076;28;20081;-80
2024/01/31 10:26:36;;;;;;;3.33;3.03;;;;;;;;;;4985132;28;20810;-80
2024/01/31 10:29:05;;;;;;;5.82;3.55;;;;;;;;;;4989785;28;20041;-80
2024/01/31 10:31:37;;;;;;;3.03;2.72;;;;;;;;;;4960141;28;20057;-80
2024/01/31 10:34:08;;;;;;;0.90;0.90;;;;;;;;;;4985339;28;20497;-80
2024/01/31 10:36:37;;;;;;;1.33;1.23;;;;;;;;;;4986300;28;20133;-80
2024/01/31 10:39:09;;;;;;;2.92;2.53;;;;;;;;;;4985759;28;20047;-80
2024/01/31 10:41:43;;;;;;;2.30;0.98;;;;;;;;;;4984814;28;20058;-80
2024/01/31 10:44:14;;;;;;;0.30;0.30;;;;;;;;;;4984052;28;20061;-79
2024/01/31 10:46:43;;;;;;;1.25;0.95;;;;;;;;;;4984908;28;20035;-79
2024/01/31 10:49:13;;;;;;;0.30;0.30;;;;;;;;;;4989691;28;20065;-79
2024/01/31 10:51:46;;;;;;;0.85;0.85;;;;;;;;;;4991249;28;20070;-80
2024/01/31 10:54:15;;;;;;;1.85;1.48;;;;;;;;;;4992677;28;20042;-80
2024/01/31 10:56:43;;;;;;;3.75;1.85;;;;;;;;;;4974333;28;20049;-79
2024/01/31 10:59:12;;;;;;;0.22;0.22;;;;;;;;;;4987104;28;20035;-79
2024/01/31 11:01:52;;;;;;;1.50;0.88;;;;;;;;;;4983171;28;20316;-79
2024/01/31 11:04:21;;;;;;;2.92;2.72;;;;;;;;;;4972110;28;20062;-80
2024/01/31 11:06:51;;;;;;;2.10;1.73;;;;;;;;;;4973011;28;20745;-79
2024/01/31 11:09:23;;;;;;;6.05;5.57;;;;;;;;;;4959743;28;20046;-80
2024/01/31 11:12:03;;;;;;;2.05;1.70;;;;;;;;;;4972195;28;20245;-79
2024/01/31 11:14:31;;;;;;;0.82;0.82;;;;;;;;;;4967886;28;20611;-79
2024/01/31 11:17:08;;;;;;;10.65;7.78;;;;;;;;;;4977077;28;20579;-79
2024/01/31 11:19:48;;;;;;;1.85;1.75;;;;;;;;;;4980003;28;20097;-79
2024/01/31 11:22:16;;;;;;;6.25;3.75;;;;;;;;;;4980380;28;20050;-79
2024/01/31 11:24:48;;;;;;;0.75;0.75;;;;;;;;;;4982382;28;20054;-79
2024/01/31 11:27:19;;;;;;;1.33;1.23;;;;;;;;;;4981846;28;20101;-78
2024/01/31 11:29:52;;;;;;;7.07;6.43;;;;;;;;;;4982452;28;20078;-79
2024/01/31 11:32:21;;;;;;;0.75;0.75;;;;;;;;;;4969975;28;20054;-79
2024/01/31 11:34:59;;;;;;;0.52;0.52;;;;;;;;;;4982839;28;20100;-78
2024/01/31 11:37:28;;;;;;;2.28;2.15;;;;;;;;;;4983014;28;20140;-79
2024/01/31 11:39:55;;;;;;;1.30;1.25;;;;;;;;;;5000678;28;20077;-79
2024/01/31 11:42:23;;;;;;;1.30;0.98;;;;;;;;;;4975299;28;20633;-79
2024/01/31 11:44:51;;;;;;;1.33;1.33;;;;;;;;;;4937981;28;21074;-79
2024/01/31 11:47:19;;;;;;;0.80;0.77;;;;;;;;;;4983951;28;20043;-79
2024/01/31 11:49:46;;;;;;;0.52;0.52;;;;;;;;;;4977917;28;20061;-79
2024/01/31 11:52:14;;;;;;;1.25;1.15;;;;;;;;;;4984134;28;20038;-79
2024/01/31 11:54:41;;;;;;;0.85;0.60;;;;;;;;;;4979399;28;20149;-79
2024/01/31 11:57:09;;;;;;;2.28;1.98;;;;;;;;;;4984830;28;20050;-78
2024/01/31 11:59:36;;;;;;;3.92;2.38;;;;;;;;;;4972270;28;20070;-79
2024/01/31 12:02:07;;;;;;;0.43;0.43;;;;;;;;;;4974276;28;20523;-79
2024/01/31 12:04:34;;;;;;;3.25;2.58;;;;;;;;;;4982351;28;20046;-79
2024/01/31 12:07:03;;;;;;;3.90;3.60;;;;;;;;;;4989697;28;20054;-79
2024/01/31 12:09:32;;;;;;;3.10;2.90;;;;;;;;;;4991615;28;20165;-79
2024/01/31 12:12:00;;;;;;;2.00;1.90;;;;;;;;;;4990566;28;20043;-79
2024/01/31 12:14:28;;;;;;;0.10;0.10;;;;;;;;;;4988597;28;20050;-79
2024/01/31 12:16:55;;;;;;;0.22;0.22;;;;;;;;;;4991033;28;20532;-79
2024/01/31 12:19:24;;;;;;;0.50;0.50;;;;;;;;;;4987419;28;20300;-79
2024/01/31 12:21:52;;;;;;;0.88;0.82;;;;;;;;;;4994064;28;20056;-78
2024/01/31 12:24:20;;;;;;;6.60;2.90;;;;;;;;;;4992149;28;20073;-79
2024/01/31 12:26:47;;;;;;;1.15;1.15;;;;;;;;;;4988139;28;20122;-79
2024/01/31 12:29:14;;;;;;;21.20;2.50;;;;;;;;;;4981553;28;20039;-79
2024/01/31 12:31:44;;;;;;;3.97;3.33;;;;;;;;;;4975998;28;27705;-79
2024/01/31 12:34:12;;;;;;;4.03;2.42;;;;;;;;;;4987686;28;20061;-79
2024/01/31 12:36:39;;;;;;;2.72;2.28;;;;;;;;;;4989037;28;20134;-79
2024/01/31 12:39:08;;;;;;;2.28;1.52;;;;;;;;;;4989004;28;20057;-79
2024/01/31 12:41:36;;;;;;;0.30;0.30;;;;;;;;;;4988988;28;20044;-79
2024/01/31 12:44:04;;;;;;;3.05;2.85;;;;;;;;;;4989839;28;20311;-79
2024/01/31 12:46:32;;;;;;;1.00;1.00;;;;;;;;;;4985756;28;20060;-79
2024/01/31 12:48:59;;;;;;;1.35;0.85;;;;;;;;;;4979633;28;20061;-79
2024/01/31 12:51:27;;;;;;;0.90;0.90;;;;;;;;;;4985480;28;20419;-79
2024/01/31 12:53:54;;;;;;;3.58;2.60;;;;;;;;;;4982239;28;20378;-79
2024/01/31 12:56:22;;;;;;;2.25;0.75;;;;;;;;;;4982158;28;20047;-78
2024/01/31 12:58:49;;;;;;;0.82;0.82;;;;;;;;;;4991811;28;20053;-79
2024/01/31 13:01:17;;;;;;;1.10;1.10;;;;;;;;;;4991085;28;20136;-78
2024/01/31 13:03:45;;;;;;;0.85;0.85;;;;;;;;;;4992765;28;20081;-79
2024/01/31 13:06:13;;;;;;;1.92;1.75;;;;;;;;;;4998760;28;20042;-80
2024/01/31 13:08:43;;;;;;;2.15;2.05;;;;;;;;;;4999143;28;20876;-80
2024/01/31 13:11:15;;;;;;;1.40;1.30;;;;;;;;;;4997330;28;20057;-80
2024/01/31 13:13:47;;;;;;;2.08;1.65;;;;;;;;;;4994469;28;20054;-79
2024/01/31 13:16:15;;;;;;;;;;;;;;;;;;4979300;28;20046;-79
2024/01/31 13:18:42;;;;;;;5.63;2.30;;;;;;;;;;4984754;28;19930;-79
2024/01/31 13:21:10;;;;;;;3.08;2.05;;;;;;;;;;4986436;28;20597;-79
2024/01/31 13:23:39;;;;;;;0.68;0.68;;;;;;;;;;4990738;28;20693;-79
2024/01/31 13:26:08;;;;;;;2.40;2.25;;;;;;;;;;4991160;28;20046;-80
2024/01/31 13:28:35;;;;;;;0.73;0.73;;;;;;;;;;4990058;28;20469;-78
2024/01/31 13:31:03;;;;;;;3.00;2.53;;;;;;;;;;4981784;28;20054;-80
2024/01/31 13:33:30;;;;;;;4.47;2.55;;;;;;;;;;4993875;28;20082;-81
2024/01/31 13:35:58;;;;;;;3.85;2.20;;;;;;;;;;4983965;28;20046;-80
2024/01/31 13:38:27;;;;;;;1.15;1.08;;;;;;;;;;4984445;28;20050;-80
2024/01/31 13:40:54;;;;;;;2.85;2.40;;;;;;;;;;4978475;28;20050;-78
2024/01/31 13:43:21;;;;;;;1.35;1.02;;;;;;;;;;4976820;28;20049;-78
2024/01/31 13:45:49;;;;;;;1.33;1.23;;;;;;;;;;4977646;28;20050;-78
2024/01/31 13:48:16;;;;;;;0.30;0.30;;;;;;;;;;4983325;28;20050;-78
2024/01/31 13:50:44;;;;;;;2.20;1.98;;;;;;;;;;4984868;28;20070;-78
2024/01/31 13:53:11;;;;;;;2.20;2.10;;;;;;;;;;4986398;28;20058;-77
2024/01/31 13:55:39;;;;;;;1.02;1.02;;;;;;;;;;4982005;28;20046;-77
2024/01/31 13:58:06;;;;;;;3.22;2.95;;;;;;;;;;4983204;28;20046;-77
2024/01/31 14:00:34;;;;;;;1.88;1.77;;;;;;;;;;4983324;28;20050;-77
2024/01/31 14:03:02;;;;;;;2.33;1.75;;;;;;;;;;4988416;28;20053;-77
2024/01/31 14:05:30;;;;;;;6.90;4.30;;;;;;;;;;4985365;28;20052;-78
2024/01/31 14:07:57;;;;;;;1.15;1.13;;;;;;;;;;4983515;28;20412;-78
2024/01/31 14:10:25;;;;;;;1.75;1.65;;;;;;;;;;4984001;28;20046;-78
2024/01/31 14:12:53;;;;;;;1.00;0.82;;;;;;;;;;4984474;28;20046;-78
2024/01/31 14:15:20;;;;;;;1.90;1.70;;;;;;;;;;4981981;28;20049;-78
2024/01/31 14:17:49;;;;;;;1.58;1.50;;;;;;;;;;4984367;28;20126;-77
2024/01/31 14:20:17;;;;;;;5.00;3.60;;;;;;;;;;4984902;28;20042;-78
2024/01/31 14:22:45;;;;;;;3.22;2.00;;;;;;;;;;4983084;28;20078;-80
2024/01/31 14:25:32;;;;;;;3.45;2.90;;;;;;;;;;4996469;28;20043;-78
2024/01/31 14:28:00;;;;;;;1.25;1.17;;;;;;;;;;4983877;28;20386;-78
2024/01/31 14:30:27;;;;;;;0.50;0.50;;;;;;;;;;4961740;28;20043;-78
2024/01/31 14:32:54;;;;;;;0.25;0.22;;;;;;;;;;4970196;28;20365;-77
2024/01/31 14:35:22;;;;;;;1.35;1.20;;;;;;;;;;4981825;28;20037;-78
2024/01/31 14:37:50;;;;;;;0.13;0.13;;;;;;;;;;4983960;28;20570;-78
2024/01/31 14:40:17;;;;;;;2.63;2.50;;;;;;;;;;4984134;28;20042;-78
2024/01/31 14:42:45;;;;;;;2.25;2.08;;;;;;;;;;4975206;28;20046;-77
2024/01/31 14:45:12;;;;;;;1.67;1.48;;;;;;;;;;4995831;28;20054;-78
2024/01/31 14:47:40;;;;;;;2.42;2.22;;;;;;;;;;4984982;28;20038;-78
2024/01/31 14:50:08;;;;;;;4.72;4.43;;;;;;;;;;4982585;28;20512;-78